Packwood, WA

12:16 AM PDT on September 22, 2014 (GMT -0700)
RAWS OHANAPECOSH WA US | Change Station
CLOSE
Current Station
Personal Weather Station
Location: Packwood, WA
Elevation: 1950 ft
Nearby Weather Stations

Elev 1950 ft 46.73 °N, 121.57 °W | Updated 35 minutes ago

Partly Cloudy
Partly Cloudy
61 °F
Feels Like 61 °F
N
0
Wind Variable Wind from North
Gusts 0.0 mph

Today
High -- | Low -- °F
--% Chance of Precip.
Yesterday
High -- | Low -- °F
Precip. -- in
6:53 AM 7:04 PM
Waning Crescent, 4% visible
Pressure 29.98 in
Visibility 10.0 miles
Clouds Mostly Cloudy 15000 ft
Overcast 17000 ft
Dew Point 56 °F
Humidity 85%
Rainfall 0.00 in
Snow Depth Not available.
UV 0 out of 12
Pollen 3.20 out of 12
Air Quality Not available.
Flu Activity Not available.
METAR KTCM 220658Z AUTO 15003KT 10SM BKN150 OVC170 15/14 A2997 RMK AO2 SLP151 T01540138 $

More Conditions Fewer Conditions

Pressure 29.98 in
Visibility 10.0 miles
Clouds Mostly Cloudy 15000 ft
Overcast 17000 ft
Dew Point 56 °F
Humidity 85%
Rainfall 0.00 in
Snow Depth Not available.
UV 0 out of 12
Pollen 3.20 out of 12
Air Quality Not available.
Flu Activity Not available.
METAR KTCM 220658Z AUTO 15003KT 10SM BKN150 OVC170 15/14 A2997 RMK AO2 SLP151 T01540138 $

More Conditions Fewer Conditions

10-Day Weather Forecast

Almanac

Astronomy

Sep. 22, 2014 Rise Set
Actual Time 6:53 AM PDT 7:04 PM PDT
Civil Twilight 6:23 AM PDT 7:34 PM PDT
Nautical Twilight 5:47 AM PDT 8:09 PM PDT
Astronomical Twilight 5:11 AM PDT 8:46 PM PDT
Moon 5:23 AM PDT 6:16 PM PDT
Length of Visible Light 13h 10m
Length of Day
12h 10m
Tomorrow will be 3m 17s shorter.
Waning Crescent, 4% of the Moon is Illuminated
Today
Waning Crescent
Sep 24
New
Oct 1
First Quarter
Oct 8
Full
Oct 15
Last Quarter

Community

WunderPhotos

Upload Photos

1,755,392 photos uploaded!

Nearby

Snow Depth

Station Depth Elevation
Surprise Lakes 1 in 4250 ft
Lone Pine 0 in 3800 ft
Grouse Camp 0 in 5380 ft
Harts Pass 0 in 6500 ft
June Lake 0 in 3340 ft

Earthquake Activity

City Distance Mag. Time & Date
No recent earthquake activity has been reported nearby.
Minimum magnitude displayed is 2.5.

Coastal Water Temperatures

Place Temperature
No Stations Reporting

Nearby Weather Stations